Time;durP1;ratioP1;P1;durP2;ratioP2;P2;SDS_P1;SDS_P2;PMS_P1;PMS_P2;Temp;Humidity;BMP_temperature;BMP_pressure;BME280_temperature;BME280_humidity;BME280_pressure;Samples;Min_cycle;Max_cycle;Signal;HPM_P1;HPM_P2
2022/12/09 00:00:01;;;;;;;38.33;24.23;;;;;;;;;;5065090;28;20609;-85
2022/12/09 00:02:29;;;;;;;44.53;26.58;;;;;;;;;;5064658;28;20227;-84
2022/12/09 00:04:59;;;;;;;39.22;22.85;;;;;;;;;;5065028;28;20210;-84
2022/12/09 00:07:34;;;;;;;40.42;22.90;;;0.60;99.90;;;;;;5064275;28;20200;-85
2022/12/09 00:10:07;;;;;;;35.35;22.15;;;;;;;;;;5064811;28;20219;-85
2022/12/09 00:15:17;;;;;;;48.08;26.20;;;;;;;;;;5070579;28;20293;-84
2022/12/09 00:17:44;;;;;;;60.55;33.60;;;;;;;;;;5077405;28;20275;-82
2022/12/09 00:20:12;;;;;;;54.38;30.52;;;0.50;99.90;;;;;;5078222;28;20217;-83
2022/12/09 00:22:40;;;;;;;63.92;32.58;;;0.60;99.90;;;;;;5078000;28;20262;-84
2022/12/09 00:25:08;;;;;;;46.97;29.20;;;;;;;;;;5077484;28;20218;-84
2022/12/09 00:27:35;;;;;;;43.95;27.67;;;0.40;99.90;;;;;;5077601;28;20238;-83
2022/12/09 00:30:02;;;;;;;43.95;25.08;;;0.80;99.90;;;;;;5077328;28;20218;-84
2022/12/09 00:32:29;;;;;;;53.35;28.20;;;0.20;99.90;;;;;;5078172;28;20281;-84
2022/12/09 00:34:56;;;;;;;51.47;28.60;;;0.20;99.90;;;;;;5072775;28;20209;-85
2022/12/09 00:37:22;;;;;;;45.25;24.58;;;0.40;99.90;;;;;;5066773;28;20573;-84
2022/12/09 00:39:51;;;;;;;49.55;27.00;;;0.60;99.90;;;;;;5065559;28;20270;-84
2022/12/09 00:42:17;;;;;;;47.25;26.90;;;0.40;99.90;;;;;;5066198;28;20227;-84
2022/12/09 00:44:44;;;;;;;41.00;22.45;;;0.50;99.90;;;;;;5065767;28;20309;-86
2022/12/09 00:47:11;;;;;;;38.13;21.70;;;0.70;99.90;;;;;;5064860;28;20210;-85
2022/12/09 00:49:38;;;;;;;38.05;22.50;;;;;;;;;;5064212;28;20278;-85
2022/12/09 00:52:05;;;;;;;39.88;21.50;;;0.40;99.90;;;;;;5064587;28;20293;-84
2022/12/09 00:54:32;;;;;;;32.35;21.38;;;0.50;99.90;;;;;;5065029;28;20310;-84
2022/12/09 00:57:00;;;;;;;38.20;20.40;;;0.50;99.90;;;;;;5064297;28;20290;-85
2022/12/09 00:59:27;;;;;;;33.42;22.08;;;0.60;99.90;;;;;;5062468;28;20305;-84
2022/12/09 01:01:54;;;;;;;40.63;23.45;;;0.30;99.90;;;;;;5062906;28;20287;-84
2022/12/09 01:04:21;;;;;;;34.50;19.15;;;0.40;99.90;;;;;;5066286;28;20222;-84
2022/12/09 01:06:47;;;;;;;38.00;21.77;;;0.40;99.90;;;;;;5064934;28;20269;-85
2022/12/09 01:09:14;;;;;;;35.58;21.00;;;0.80;99.90;;;;;;5064994;28;20226;-84
2022/12/09 01:11:41;;;;;;;40.65;20.95;;;0.60;99.90;;;;;;5066598;28;20298;-84
2022/12/09 01:14:10;;;;;;;39.00;20.40;;;0.40;99.90;;;;;;5069257;28;20211;-84
2022/12/09 01:16:37;;;;;;;32.63;20.20;;;0.40;99.90;;;;;;5073184;28;20218;-84
2022/12/09 01:19:06;;;;;;;37.03;20.90;;;0.20;99.90;;;;;;5072730;28;20597;-84
2022/12/09 01:21:35;;;;;;;37.85;20.17;;;0.40;99.90;;;;;;5065924;28;20223;-86
2022/12/09 01:24:06;;;;;;;34.00;19.33;;;0.60;99.90;;;;;;5063274;28;20206;-84
2022/12/09 01:26:33;;;;;;;42.03;19.80;;;0.40;99.90;;;;;;5061775;28;20253;-86
2022/12/09 01:29:01;;;;;;;34.17;20.33;;;0.10;99.90;;;;;;5061946;28;20238;-84
2022/12/09 01:31:30;;;;;;;31.48;18.90;;;0.00;99.90;;;;;;5063352;28;20223;-85
2022/12/09 01:33:57;;;;;;;37.47;19.45;;;-0.10;99.90;;;;;;5062171;28;20215;-86
2022/12/09 01:36:26;;;;;;;27.45;18.40;;;-0.10;99.90;;;;;;5066091;28;20288;-86
2022/12/09 01:38:54;;;;;;;33.60;19.50;;;0.10;99.90;;;;;;5076223;28;20257;-84
2022/12/09 01:41:21;;;;;;;35.80;19.75;;;0.10;99.90;;;;;;5075575;28;20227;-85
2022/12/09 01:44:10;;;;;;;33.60;19.25;;;0.30;99.90;;;;;;5074668;28;20249;-84
2022/12/09 01:46:39;;;;;;;29.58;17.85;;;0.20;99.90;;;;;;5069043;28;20199;-85
2022/12/09 01:49:08;;;;;;;35.03;21.00;;;-0.20;99.90;;;;;;5063947;28;20287;-84
2022/12/09 01:51:39;;;;;;;29.70;18.75;;;0.10;99.90;;;;;;5065007;28;20219;-85
2022/12/09 01:54:07;;;;;;;28.02;18.90;;;-0.60;99.90;;;;;;5065027;28;20254;-83
2022/12/09 01:56:35;;;;;;;30.08;18.80;;;0.10;99.90;;;;;;5066413;28;20225;-85
2022/12/09 01:59:04;;;;;;;34.30;18.08;;;0.40;99.90;;;;;;5066080;28;20262;-85
2022/12/09 02:01:31;;;;;;;37.03;19.73;;;0.70;99.90;;;;;;5065838;28;20227;-85
2022/12/09 02:04:00;;;;;;;29.75;17.33;;;0.20;99.90;;;;;;5065320;28;20231;-85
2022/12/09 02:06:27;;;;;;;31.90;18.00;;;0.00;99.90;;;;;;5068250;28;20214;-83
2022/12/09 02:08:55;;;;;;;35.88;19.38;;;0.10;99.90;;;;;;5075581;28;20235;-84
2022/12/09 02:11:30;;;;;;;41.92;21.65;;;0.20;99.90;;;;;;5076214;28;20231;-84
2022/12/09 02:14:02;;;;;;;39.67;19.70;;;0.30;99.90;;;;;;5068324;28;20230;-86
2022/12/09 02:16:34;;;;;;;31.33;19.70;;;-0.10;99.90;;;;;;5065612;28;20270;-85
2022/12/09 02:19:13;;;;;;;30.67;18.25;;;0.20;99.90;;;;;;5066523;28;20294;-85
2022/12/09 02:21:46;;;;;;;33.20;19.65;;;-0.30;99.90;;;;;;5063656;28;20226;-85
2022/12/09 02:24:18;;;;;;;38.47;18.90;;;0.00;99.90;;;;;;5064938;28;20207;-85
2022/12/09 02:26:52;;;;;;;27.73;18.15;;;0.20;99.90;;;;;;5064592;28;20251;-85
2022/12/09 02:29:40;;;;;;;36.75;19.88;;;0.10;99.90;;;;;;5064701;28;20184;-85
2022/12/09 02:32:36;;;;;;;36.00;19.63;;;0.30;99.90;;;;;;5063817;28;20246;-84
2022/12/09 02:35:09;;;;;;;35.75;20.33;;;0.60;99.90;;;;;;5064496;28;20241;-84
2022/12/09 02:37:40;;;;;;;30.50;18.13;;;0.60;99.90;;;;;;5064492;28;20714;-84
2022/12/09 02:40:11;;;;;;;33.40;19.20;;;0.40;99.90;;;;;;5063780;28;20290;-85
2022/12/09 02:42:40;;;;;;;33.65;17.55;;;0.10;99.90;;;;;;5063194;28;20231;-85
2022/12/09 02:45:10;;;;;;;35.88;18.58;;;0.10;99.90;;;;;;5080752;28;20190;-85
2022/12/09 02:47:42;;;;;;;31.45;18.50;;;0.70;99.90;;;;;;5080991;28;20184;-85
2022/12/09 02:50:14;;;;;;;27.40;17.35;;;0.20;99.90;;;;;;5081266;28;20198;-84
2022/12/09 02:52:43;;;;;;;35.28;17.92;;;0.90;99.90;;;;;;5060864;28;20231;-84
2022/12/09 02:55:13;;;;;;;34.33;17.52;;;0.60;99.90;;;;;;5057872;28;20234;-85
2022/12/09 02:57:40;;;;;;;31.20;17.00;;;0.30;99.90;;;;;;5058200;28;20221;-84
2022/12/09 03:00:09;;;;;;;26.98;16.05;;;0.30;99.90;;;;;;5058675;28;20192;-85
2022/12/09 03:02:38;;;;;;;30.83;15.55;;;0.60;99.90;;;;;;5058474;28;20326;-84
2022/12/09 03:05:14;;;;;;;28.33;18.90;;;0.70;99.90;;;;;;5061325;28;20270;-84
2022/12/09 03:07:51;;;;;;;25.80;17.52;;;0.60;99.90;;;;;;5059459;28;20218;-84
2022/12/09 03:10:23;;;;;;;28.50;17.38;;;0.40;99.90;;;;;;5061213;28;20195;-84
2022/12/09 03:12:56;;;;;;;35.20;18.08;;;0.60;99.90;;;;;;5061435;28;20318;-85
2022/12/09 03:15:27;;;;;;;36.20;19.17;;;0.40;99.90;;;;;;5067437;28;20669;-85
2022/12/09 03:17:56;;;;;;;28.60;17.13;;;0.50;99.90;;;;;;5072697;28;20226;-84
2022/12/09 03:20:28;;;;;;;28.70;17.25;;;0.70;99.90;;;;;;5071377;28;20203;-84
2022/12/09 03:22:58;;;;;;;28.67;15.85;;;0.70;99.90;;;;;;5064374;28;20227;-84
2022/12/09 03:25:30;;;;;;;31.42;17.23;;;0.50;99.90;;;;;;5063816;28;20222;-85
2022/12/09 03:28:00;;;;;;;35.33;18.88;;;0.80;99.90;;;;;;5064045;28;20223;-84
2022/12/09 03:30:28;;;;;;;33.58;17.98;;;0.70;99.90;;;;;;5062594;28;20270;-84
2022/12/09 04:17:04;;;;;;;33.72;19.75;;;;;;;;;;4942587;28;20218;-84
2022/12/09 04:25:51;;;;;;;23.48;15.07;;;0.40;99.90;;;;;;5020013;22;20229;-85
2022/12/09 04:28:18;;;;;;;25.40;16.10;;;0.50;99.90;;;;;;4980284;28;20281;-85
2022/12/09 04:30:45;;;;;;;24.25;13.82;;;0.50;99.90;;;;;;4978668;28;20639;-84
2022/12/09 04:33:12;;;;;;;25.67;15.25;;;0.60;99.90;;;;;;4979980;28;20636;-85
2022/12/09 04:35:39;;;;;;;27.75;16.45;;;0.70;99.90;;;;;;4977941;28;20261;-85
2022/12/09 04:38:06;;;;;;;24.35;15.07;;;0.60;99.90;;;;;;4977933;28;20221;-85
2022/12/09 04:40:33;;;;;;;24.15;16.10;;;0.40;99.90;;;;;;4979611;28;20273;-84
2022/12/09 04:43:01;;;;;;;27.83;14.93;;;0.10;99.90;;;;;;5084108;28;20202;-84
2022/12/09 04:45:28;;;;;;;22.23;14.05;;;0.30;99.90;;;;;;5096741;28;20230;-84
2022/12/09 04:47:55;;;;;;;23.70;14.18;;;0.30;99.90;;;;;;5098191;28;20242;-84
2022/12/09 04:50:22;;;;;;;20.27;13.65;;;0.40;99.90;;;;;;5098205;28;20179;-84
2022/12/09 04:52:49;;;;;;;21.90;12.63;;;;;;;;;;5098803;28;20186;-83
2022/12/09 04:55:16;;;;;;;19.35;10.85;;;;;;;;;;5098586;28;20271;-83
2022/12/09 04:57:43;;;;;;;23.25;13.40;;;0.50;99.90;;;;;;5098159;28;20216;-83
2022/12/09 05:00:13;;;;;;;26.83;13.05;;;0.60;99.90;;;;;;5098550;28;20234;-83
2022/12/09 05:02:39;;;;;;;20.95;12.68;;;0.50;99.90;;;;;;5092823;28;20194;-84
2022/12/09 05:05:07;;;;;;;21.17;12.77;;;;;;;;;;5088721;28;20289;-85
2022/12/09 05:07:33;;;;;;;16.63;11.85;;;0.50;99.90;;;;;;5086867;28;20269;-84
2022/12/09 05:10:00;;;;;;;18.70;12.48;;;0.30;99.90;;;;;;5086012;28;20309;-84
2022/12/09 05:12:27;;;;;;;21.08;13.63;;;0.80;99.90;;;;;;5082843;28;20215;-84
2022/12/09 05:14:54;;;;;;;23.55;13.80;;;0.70;99.90;;;;;;5082577;28;20206;-85
2022/12/09 05:17:23;;;;;;;23.90;14.27;;;0.60;99.90;;;;;;5080863;28;20246;-84
2022/12/09 05:19:50;;;;;;;28.05;14.85;;;0.70;99.90;;;;;;5081193;28;20221;-84
2022/12/09 05:22:18;;;;;;;17.63;12.00;;;0.70;99.90;;;;;;5079189;28;20233;-86
2022/12/09 05:24:45;;;;;;;24.17;13.20;;;-0.80;99.90;;;;;;5079030;28;20294;-85
2022/12/09 05:27:13;;;;;;;20.42;13.68;;;0.30;99.90;;;;;;5094423;28;20210;-84
2022/12/09 05:29:40;;;;;;;22.83;13.40;;;-0.10;99.90;;;;;;5090703;28;20202;-85
2022/12/09 05:32:08;;;;;;;22.73;13.52;;;0.40;99.90;;;;;;5083358;28;20270;-85
2022/12/09 05:34:36;;;;;;;22.05;12.85;;;0.30;99.90;;;;;;5079379;28;20214;-86
2022/12/09 05:37:03;;;;;;;21.25;13.82;;;0.40;99.90;;;;;;5078829;28;20286;-86
2022/12/09 05:39:29;;;;;;;23.27;14.20;;;0.40;99.90;;;;;;5078032;28;20228;-86
2022/12/09 05:41:56;;;;;;;22.92;14.32;;;0.20;99.90;;;;;;5079814;28;20205;-85
2022/12/09 05:44:23;;;;;;;21.63;14.52;;;0.10;99.90;;;;;;5080785;28;20662;-84
2022/12/09 05:46:51;;;;;;;23.48;14.50;;;0.60;99.90;;;;;;5080611;28;20226;-85
2022/12/09 05:49:18;;;;;;;32.92;15.98;;;0.30;99.90;;;;;;5079964;28;20202;-83
2022/12/09 05:51:46;;;;;;;23.55;14.40;;;0.50;99.90;;;;;;5080743;28;20202;-84
2022/12/09 05:54:13;;;;;;;28.48;15.35;;;0.40;99.90;;;;;;5080540;28;20202;-83
2022/12/09 05:56:40;;;;;;;26.48;15.48;;;0.10;99.90;;;;;;5080543;28;20289;-84
2022/12/09 05:59:06;;;;;;;25.80;15.57;;;0.20;99.90;;;;;;5081897;28;20226;-84
2022/12/09 06:01:33;;;;;;;26.55;15.70;;;0.30;99.90;;;;;;5081740;28;20232;-85
2022/12/09 06:04:00;;;;;;;25.52;16.40;;;0.20;99.90;;;;;;5082663;28;20241;-84
2022/12/09 06:06:28;;;;;;;25.35;14.88;;;0.00;99.90;;;;;;5083449;28;20268;-84
2022/12/09 06:08:58;;;;;;;26.92;15.10;;;0.40;99.90;;;;;;5082671;28;20211;-83
2022/12/09 06:11:26;;;;;;;27.52;16.20;;;;;;;;;;5083972;28;20258;-84
2022/12/09 06:13:53;;;;;;;20.58;13.63;;;0.20;99.90;;;;;;5085139;28;20226;-83
2022/12/09 06:16:22;;;;;;;24.23;14.80;;;0.40;99.90;;;;;;5094032;28;20250;-83
2022/12/09 06:18:50;;;;;;;27.17;14.65;;;0.10;99.90;;;;;;5094534;28;20202;-84
2022/12/09 06:21:19;;;;;;;24.45;14.60;;;0.20;99.90;;;;;;5089510;28;20430;-83
2022/12/09 06:23:46;;;;;;;24.50;14.77;;;;;;;;;;5087603;28;20437;-85
2022/12/09 06:26:19;;;;;;;27.00;14.95;;;-0.10;99.90;;;;;;5086720;28;20245;-84
2022/12/09 06:28:50;;;;;;;22.45;13.77;;;0.50;99.90;;;;;;5086032;28;20232;-84
2022/12/09 06:31:17;;;;;;;25.60;14.27;;;0.30;99.90;;;;;;5083923;28;20222;-85
2022/12/09 06:33:48;;;;;;;20.23;13.13;;;0.40;99.90;;;;;;5083171;28;20277;-83
2022/12/09 06:36:17;;;;;;;23.05;14.15;;;0.20;99.90;;;;;;5085002;28;20234;-83
2022/12/09 06:38:44;;;;;;;26.20;15.45;;;0.20;99.90;;;;;;5084679;28;20217;-85
2022/12/09 06:41:13;;;;;;;28.13;15.02;;;0.10;99.90;;;;;;5086169;28;20252;-85
2022/12/09 06:43:43;;;;;;;23.17;14.65;;;0.30;99.90;;;;;;5086323;28;20294;-84
2022/12/09 06:46:14;;;;;;;22.75;13.00;;;0.00;99.90;;;;;;5086563;28;20229;-85
2022/12/09 06:48:45;;;;;;;25.80;14.75;;;-0.20;99.90;;;;;;5085251;28;20225;-85
2022/12/09 06:51:13;;;;;;;25.92;14.73;;;0.00;99.90;;;;;;5087079;28;20541;-84
2022/12/09 06:53:41;;;;;;;22.95;13.05;;;0.40;99.90;;;;;;5085794;28;20229;-85
2022/12/09 06:56:11;;;;;;;30.15;14.95;;;0.00;99.90;;;;;;5082488;28;20238;-85
2022/12/09 06:58:46;;;;;;;24.17;14.80;;;-0.60;99.90;;;;;;5081792;28;20232;-86
2022/12/09 07:01:16;;;;;;;26.40;15.30;;;0.00;99.90;;;;;;5083561;28;20248;-85
2022/12/09 07:09:45;;;;;;;23.83;14.18;;;;;;;;;;5083411;28;20208;-86
2022/12/09 07:12:13;;;;;;;24.80;14.52;;;;;;;;;;5087015;28;20559;-86
2022/12/09 07:14:47;;;;;;;27.30;15.57;;;;;;;;;;5088890;28;20652;-85
2022/12/09 07:17:16;;;;;;;26.75;14.38;;;;;;;;;;5098688;28;20210;-84
2022/12/09 07:19:47;;;;;;;25.05;13.80;;;;;;;;;;5100490;28;20233;-85
2022/12/09 07:22:21;;;;;;;25.92;14.68;;;;;;;;;;5095026;28;20187;-85
2022/12/09 07:24:52;;;;;;;24.83;12.43;;;;;;;;;;5090158;28;20194;-84
2022/12/09 07:27:19;;;;;;;25.15;14.43;;;;;;;;;;5093953;28;20228;-83
2022/12/09 07:29:48;;;;;;;25.98;13.88;;;-0.10;99.90;;;;;;5100994;28;20175;-84
2022/12/09 07:35:15;;;;;;;28.95;15.60;;;;;;;;;;5090362;28;20193;-84
2022/12/09 07:37:42;;;;;;;23.50;14.57;;;;;;;;;;5080074;28;20200;-84
2022/12/09 07:40:11;;;;;;;26.80;12.68;;;;;;;;;;5081795;28;20221;-84
2022/12/09 07:42:38;;;;;;;25.42;13.80;;;;;;;;;;5081892;28;20206;-84
2022/12/09 07:45:11;;;;;;;30.48;13.73;;;;;;;;;;5085847;28;20252;-84
2022/12/09 07:47:39;;;;;;;24.92;13.30;;;;;;;;;;5085072;28;20217;-85
2022/12/09 07:50:11;;;;;;;32.58;15.50;;;;;;;;;;5083238;28;20237;-85
2022/12/09 07:52:39;;;;;;;29.52;14.43;;;;;;;;;;5082311;28;20204;-85
2022/12/09 07:55:07;;;;;;;29.75;15.38;;;;;;;;;;5085344;28;20339;-85
2022/12/09 07:57:35;;;;;;;31.58;16.48;;;;;;;;;;5081868;28;20205;-86
2022/12/09 08:00:02;;;;;;;38.45;18.27;;;;;;;;;;5081939;28;20228;-85
2022/12/09 08:02:31;;;;;;;32.40;16.48;;;;;;;;;;5083181;28;20210;-84
2022/12/09 08:04:58;;;;;;;34.47;15.32;;;-0.10;99.90;;;;;;5083919;28;20210;-85
2022/12/09 08:07:25;;;;;;;39.75;15.80;;;0.20;99.90;;;;;;5083034;28;20244;-84
2022/12/09 08:09:54;;;;;;;31.17;15.60;;;0.10;99.90;;;;;;5084660;28;20615;-85
2022/12/09 08:12:21;;;;;;;33.05;15.10;;;0.30;99.90;;;;;;5083207;28;20240;-85
2022/12/09 08:14:51;;;;;;;28.10;14.43;;;0.10;99.90;;;;;;5082775;28;20202;-86
2022/12/09 08:20:34;;;;;;;40.70;16.77;;;;;;;;;;5021749;28;20307;-86
2022/12/09 08:23:03;;;;;;;42.25;17.58;;;;;;;;;;5060317;28;20201;-86
2022/12/09 08:25:30;;;;;;;46.33;18.33;;;;;;;;;;5093389;28;20605;-85
2022/12/09 08:27:57;;;;;;;35.72;17.15;;;;;;;;;;5093242;28;20211;-85
2022/12/09 08:30:25;;;;;;;30.60;15.30;;;0.50;99.90;;;;;;5091786;28;20209;-86
2022/12/09 08:32:51;;;;;;;36.95;15.43;;;0.20;99.90;;;;;;5091338;28;20203;-85
2022/12/09 08:35:20;;;;;;;31.08;15.48;;;0.30;99.90;;;;;;5084200;28;20281;-84
2022/12/09 08:37:46;;;;;;;34.00;15.50;;;0.40;99.90;;;;;;5083616;28;20203;-85
2022/12/09 08:40:14;;;;;;;34.25;18.10;;;0.40;99.90;;;;;;5082150;28;20710;-85
2022/12/09 08:42:41;;;;;;;39.20;17.02;;;;;;;;;;5093342;28;20202;-86
2022/12/09 08:45:08;;;;;;;29.27;15.15;;;0.50;99.90;;;;;;5096365;28;20229;-85
2022/12/09 08:47:35;;;;;;;29.58;15.38;;;0.50;99.90;;;;;;5095955;28;20233;-83
2022/12/09 08:50:02;;;;;;;28.98;15.63;;;0.20;99.90;;;;;;5093939;28;20202;-85
2022/12/09 08:52:30;;;;;;;27.77;13.43;;;0.20;99.90;;;;;;5090137;28;20293;-83
2022/12/09 08:54:57;;;;;;;29.45;15.57;;;0.40;99.90;;;;;;5084385;28;20212;-84
2022/12/09 08:57:24;;;;;;;34.55;15.20;;;0.70;99.90;;;;;;5083916;28;20227;-83
2022/12/09 08:59:51;;;;;;;34.60;16.52;;;0.00;99.90;;;;;;5080587;28;20223;-84
2022/12/09 09:02:18;;;;;;;31.05;15.13;;;0.30;99.90;;;;;;5090894;28;20182;-84
2022/12/09 09:04:45;;;;;;;28.08;14.85;;;0.30;99.90;;;;;;5098548;28;20170;-83
2022/12/09 09:07:12;;;;;;;33.22;17.13;;;0.50;99.90;;;;;;5098399;28;20275;-85
2022/12/09 09:09:40;;;;;;;35.00;15.48;;;0.00;99.90;;;;;;5089983;28;20266;-84
2022/12/09 09:12:08;;;;;;;36.00;17.45;;;0.10;99.90;;;;;;5086159;28;20300;-84
2022/12/09 09:14:34;;;;;;;38.15;16.45;;;0.20;99.90;;;;;;5091331;28;20187;-83
2022/12/09 09:17:01;;;;;;;33.20;15.77;;;0.20;99.90;;;;;;5097624;28;20221;-83
2022/12/09 09:19:28;;;;;;;38.63;17.48;;;0.60;99.90;;;;;;5097393;28;20213;-84
2022/12/09 09:21:55;;;;;;;32.08;16.40;;;0.40;99.90;;;;;;5098216;28;20225;-84
2022/12/09 09:24:24;;;;;;;41.92;19.27;;;0.40;99.90;;;;;;5097309;28;20199;-83
2022/12/09 09:26:53;;;;;;;42.85;18.40;;;-0.10;99.90;;;;;;5098094;28;20234;-84
2022/12/09 09:29:22;;;;;;;37.10;17.67;;;0.20;99.90;;;;;;5097454;28;20194;-84
2022/12/09 09:31:52;;;;;;;37.38;17.85;;;;;;;;;;5089350;28;20203;-85
2022/12/09 09:34:19;;;;;;;40.40;18.90;;;0.10;99.90;;;;;;5086000;28;20190;-86
2022/12/09 09:36:49;;;;;;;51.00;19.60;;;0.10;99.90;;;;;;5083338;28;20233;-85
2022/12/09 09:39:17;;;;;;;46.20;16.65;;;0.50;99.90;;;;;;5083615;28;20209;-86
2022/12/09 09:41:49;;;;;;;33.40;15.52;;;0.10;99.90;;;;;;5084993;28;20233;-84
2022/12/09 09:44:23;;;;;;;37.80;17.27;;;0.10;99.90;;;;;;5084504;28;20673;-85
2022/12/09 09:46:54;;;;;;;38.47;18.25;;;0.20;99.90;;;;;;5083938;28;20308;-85
2022/12/09 09:49:28;;;;;;;34.08;17.30;;;0.10;99.90;;;;;;5084185;28;20198;-84
2022/12/09 09:51:55;;;;;;;38.03;16.48;;;0.30;99.90;;;;;;5083723;28;20270;-85
2022/12/09 09:54:22;;;;;;;40.35;15.60;;;-0.40;99.90;;;;;;5083084;28;20210;-85
2022/12/09 09:56:56;;;;;;;33.42;18.30;;;0.20;99.90;;;;;;5082608;28;20262;-83
2022/12/09 09:59:33;;;;;;;25.95;14.25;;;0.10;99.90;;;;;;5082796;28;20186;-84
2022/12/09 10:02:17;;;;;;;39.17;16.27;;;0.00;99.90;;;;;;5081889;28;20742;-84
2022/12/09 10:04:59;;;;;;;34.45;15.80;;;0.20;99.90;;;;;;5082449;28;20210;-84
2022/12/09 10:07:40;;;;;;;38.47;14.40;;;0.20;99.90;;;;;;5082679;28;20230;-85
2022/12/09 10:10:27;;;;;;;32.22;15.30;;;0.20;99.90;;;;;;5084484;28;20183;-84
2022/12/09 10:13:21;;;;;;;37.72;15.77;;;0.50;99.90;;;;;;5086419;28;20763;-84
2022/12/09 10:15:58;;;;;;;28.55;13.55;;;0.30;99.90;;;;;;5089514;28;20251;-85
2022/12/09 10:18:31;;;;;;;33.88;14.98;;;0.30;99.90;;;;;;5094268;28;20191;-84
2022/12/09 10:20:58;;;;;;;31.40;13.90;;;0.50;99.90;;;;;;5092528;28;20222;-84
2022/12/09 10:23:29;;;;;;;32.65;16.60;;;0.20;99.90;;;;;;5091776;28;20191;-85
2022/12/09 10:30:10;;;;;;;30.60;16.02;;;0.20;99.90;;;;;;5060307;28;20229;-85
2022/12/09 10:48:04;;;;;;;40.47;17.42;;;0.20;99.90;;;;;;5048182;28;20214;-84
2022/12/09 11:00:12;;;;;;;38.55;16.95;;;0.40;99.90;;;;;;5063931;28;20262;-85
2022/12/09 11:03:07;;;;;;;42.97;18.15;;;0.40;99.90;;;;;;5048801;28;20207;-84
2022/12/09 14:35:30;;;;;;;21.42;11.40;;;-0.60;99.90;;;;;;5087518;28;20237;-85
2022/12/09 14:38:14;;;;;;;23.58;11.95;;;-0.70;99.90;;;;;;5093562;28;20213;-84
2022/12/09 14:40:51;;;;;;;21.40;11.38;;;-0.50;99.90;;;;;;5093059;28;20273;-85
2022/12/09 14:43:44;;;;;;;23.17;11.70;;;-0.50;99.90;;;;;;5093010;28;20224;-85
2022/12/09 14:46:26;;;;;;;21.90;11.77;;;-0.50;99.90;;;;;;5090050;28;20205;-85
2022/12/09 14:48:56;;;;;;;21.98;13.15;;;-0.70;99.90;;;;;;5089328;28;20261;-86
2022/12/09 14:51:30;;;;;;;20.02;11.13;;;-1.60;99.90;;;;;;5089505;28;20218;-85
2022/12/09 14:53:59;;;;;;;26.90;12.73;;;-0.60;99.90;;;;;;5088387;28;20229;-84
2022/12/09 14:56:28;;;;;;;26.73;12.73;;;-0.90;99.90;;;;;;5087844;28;20205;-85
2022/12/09 14:59:00;;;;;;;22.40;13.00;;;-0.30;99.90;;;;;;5089399;28;20668;-85
2022/12/09 15:01:27;;;;;;;24.85;12.48;;;-0.70;99.90;;;;;;5093017;28;20216;-84
2022/12/09 15:03:56;;;;;;;22.33;13.23;;;-0.20;99.90;;;;;;5092010;28;20308;-85
2022/12/09 15:06:25;;;;;;;22.98;12.52;;;-0.50;99.90;;;;;;5088057;28;20232;-84
2022/12/09 15:08:56;;;;;;;24.05;12.30;;;-0.50;99.90;;;;;;5087118;28;20217;-84
2022/12/09 15:11:28;;;;;;;21.33;12.30;;;-0.60;99.90;;;;;;5091769;28;20201;-84
2022/12/09 15:14:25;;;;;;;21.35;12.90;;;-0.60;99.90;;;;;;5095996;28;20229;-85
2022/12/09 15:16:44;;;;;;;27.55;13.32;;;-0.30;99.90;;;;;;5096542;28;20212;-85
2022/12/09 15:19:18;;;;;;;30.10;14.10;;;-0.30;99.90;;;;;;5089578;28;20274;-85
2022/12/09 15:21:48;;;;;;;26.35;13.52;;;-0.50;99.90;;;;;;5088917;28;20572;-85
2022/12/09 15:24:16;;;;;;;32.28;13.10;;;-0.70;99.90;;;;;;5086745;28;20794;-85
2022/12/09 15:26:54;;;;;;;28.92;12.88;;;-0.40;99.90;;;;;;5086257;28;20284;-85
2022/12/09 15:29:22;;;;;;;28.70;14.63;;;-0.70;99.90;;;;;;5087145;28;20236;-85
2022/12/09 15:31:52;;;;;;;24.05;13.18;;;-0.50;99.90;;;;;;5086762;28;20212;-85
2022/12/09 15:34:20;;;;;;;25.70;12.23;;;-0.40;99.90;;;;;;5086551;28;20230;-85
2022/12/09 15:36:52;;;;;;;36.15;14.65;;;-0.60;99.90;;;;;;5086724;28;20237;-85
2022/12/09 15:39:23;;;;;;;33.05;15.90;;;-0.50;99.90;;;;;;5087634;28;20216;-85
2022/12/09 15:42:08;;;;;;;27.08;13.30;;;-0.60;99.90;;;;;;5086962;28;20257;-84
2022/12/09 15:44:41;;;;;;;33.53;15.32;;;-0.90;99.90;;;;;;5087505;28;20254;-85
2022/12/09 15:47:11;;;;;;;41.13;15.38;;;-0.30;99.90;;;;;;5086519;28;20637;-85
2022/12/09 15:49:44;;;;;;;39.03;16.85;;;-0.80;99.90;;;;;;5088341;28;20244;-86
2022/12/09 15:52:18;;;;;;;40.45;16.15;;;-0.30;99.90;;;;;;5088259;28;20190;-85
2022/12/09 15:54:46;;;;;;;30.15;16.55;;;-0.50;99.90;;;;;;5087579;28;20626;-84
2022/12/09 15:57:27;;;;;;;33.03;15.32;;;-0.60;99.90;;;;;;5090286;28;20221;-84
2022/12/09 15:59:58;;;;;;;32.33;15.15;;;-0.50;99.90;;;;;;5090558;28;20648;-84
2022/12/09 16:02:28;;;;;;;25.05;15.15;;;-0.50;99.90;;;;;;5091267;28;20225;-85
2022/12/09 16:04:59;;;;;;;29.10;16.25;;;-0.50;99.90;;;;;;5087675;28;20312;-85
2022/12/09 16:07:31;;;;;;;32.90;15.50;;;-0.90;99.90;;;;;;5086621;28;20211;-85
2022/12/09 16:10:16;;;;;;;26.98;12.32;;;-0.40;99.90;;;;;;5087319;28;20194;-84
2022/12/09 16:12:44;;;;;;;28.17;16.13;;;-0.70;99.90;;;;;;5087960;28;20201;-85
2022/12/09 16:15:13;;;;;;;25.20;13.10;;;-0.70;99.90;;;;;;5088173;28;20331;-84
2022/12/09 16:17:56;;;;;;;28.15;12.88;;;-0.70;89.10;;;;;;5087548;28;20720;-84
2022/12/09 16:20:33;;;;;;;30.15;12.98;;;-0.80;85.40;;;;;;5086275;28;20711;-85
2022/12/09 16:23:02;;;;;;;25.98;12.60;;;-1.10;99.90;;;;;;5086863;28;20232;-85
2022/12/09 16:25:36;;;;;;;22.35;13.50;;;-0.90;99.90;;;;;;5086724;28;20204;-85
2022/12/09 16:28:06;;;;;;;21.65;11.63;;;-0.80;99.90;;;;;;5085568;28;20209;-85
2022/12/09 16:30:47;;;;;;;19.42;10.77;;;-1.00;94.40;;;;;;5085059;28;20190;-85
2022/12/09 16:33:17;;;;;;;20.27;11.48;;;-1.00;99.90;;;;;;5090114;28;20264;-85
2022/12/09 16:35:47;;;;;;;19.58;10.90;;;-0.80;99.90;;;;;;5092948;28;20201;-84
2022/12/09 16:38:19;;;;;;;23.40;12.32;;;-1.00;78.20;;;;;;5091492;28;20221;-84
2022/12/09 16:41:05;;;;;;;24.70;11.85;;;-1.40;99.90;;;;;;5087707;28;20186;-84
2022/12/09 16:43:33;;;;;;;21.80;13.23;;;-1.00;99.90;;;;;;5086219;28;20228;-84
2022/12/09 16:46:01;;;;;;;26.38;13.55;;;-0.60;99.90;;;;;;5085343;28;20209;-84
2022/12/09 16:48:30;;;;;;;25.83;13.95;;;-1.00;74.70;;;;;;5086090;28;20276;-84
2022/12/09 16:51:05;;;;;;;26.48;14.60;;;-0.60;97.70;;;;;;5086462;28;20710;-84
2022/12/09 16:53:45;;;;;;;28.48;14.52;;;-0.90;31.10;;;;;;5099053;28;20205;-85
2022/12/09 16:56:27;;;;;;;29.17;14.60;;;-1.00;42.70;;;;;;5099195;28;20199;-85
2022/12/09 16:58:54;;;;;;;26.58;15.75;;;;;;;;;;5095336;28;20258;-84
2022/12/09 17:01:24;;;;;;;26.95;14.73;;;-0.90;78.10;;;;;;5079820;28;20252;-84
2022/12/09 17:04:02;;;;;;;24.58;13.38;;;-1.00;64.90;;;;;;5083445;28;20247;-86
2022/12/09 17:06:30;;;;;;;27.27;13.68;;;;;;;;;;5082172;28;20199;-84
2022/12/09 17:08:58;;;;;;;24.60;13.07;;;;;;;;;;5083341;28;20294;-84
2022/12/09 17:11:25;;;;;;;24.40;14.40;;;;;;;;;;5083007;28;20205;-85
2022/12/09 17:13:53;;;;;;;30.20;16.48;;;;;;;;;;5084042;28;20240;-85
2022/12/09 17:16:22;;;;;;;28.05;14.93;;;-1.20;99.90;;;;;;5083865;28;20306;-86
2022/12/09 17:18:50;;;;;;;28.35;15.27;;;-1.90;99.90;;;;;;5082245;28;20213;-84
2022/12/09 17:21:17;;;;;;;32.40;16.27;;;-0.80;99.90;;;;;;5081296;28;20199;-85
2022/12/09 17:23:44;;;;;;;35.03;17.30;;;-1.20;99.90;;;;;;5083700;28;20295;-85
2022/12/09 17:26:15;;;;;;;33.22;16.23;;;-0.70;99.90;;;;;;5086569;28;20206;-84
2022/12/09 17:28:43;;;;;;;31.48;17.75;;;-0.30;99.90;;;;;;5095934;28;20169;-84
2022/12/09 17:31:12;;;;;;;35.33;17.95;;;-1.00;99.90;;;;;;5097968;28;20184;-84
2022/12/09 17:33:44;;;;;;;31.73;16.50;;;-1.00;62.80;;;;;;5096957;28;20235;-85
2022/12/09 17:36:11;;;;;;;31.98;14.75;;;;;;;;;;5098471;28;20244;-85
2022/12/09 17:38:38;;;;;;;27.27;14.38;;;-1.10;36.00;;;;;;5098371;28;20176;-85
2022/12/09 17:41:07;;;;;;;30.90;16.23;;;-0.80;99.90;;;;;;5097718;28;20233;-84
2022/12/09 17:43:36;;;;;;;28.02;14.90;;;-1.30;8.60;;;;;;5097430;28;20224;-83
2022/12/09 17:46:04;;;;;;;32.58;14.90;;;-1.00;99.90;;;;;;5092203;28;20204;-84
2022/12/09 17:48:32;;;;;;;26.70;13.43;;;-1.40;99.90;;;;;;5086901;28;20205;-84
2022/12/09 17:50:59;;;;;;;36.83;15.32;;;-1.70;99.90;;;;;;5087224;28;20218;-84
2022/12/09 17:53:26;;;;;;;33.58;16.73;;;-1.00;99.90;;;;;;5087341;28;20220;-84
2022/12/09 17:55:53;;;;;;;29.20;15.38;;;-0.80;61.80;;;;;;5085911;28;20352;-86
2022/12/09 17:58:19;;;;;;;31.25;17.33;;;-1.20;99.90;;;;;;5085605;28;20205;-84
2022/12/09 18:00:48;;;;;;;34.90;17.90;;;-1.10;99.90;;;;;;5084727;28;20272;-84
2022/12/09 18:03:15;;;;;;;33.45;17.23;;;-1.00;99.90;;;;;;5083760;28;20319;-84
2022/12/09 18:05:41;;;;;;;33.08;17.40;;;-1.10;99.90;;;;;;5083065;28;20203;-84